createdAt,value
2018-02-03T00:00:55.150Z,8.17
2018-02-03T00:03:24.283Z,6.33
2018-02-03T00:05:52.673Z,5.90
2018-02-03T00:08:20.953Z,7.80
2018-02-03T00:10:50.042Z,8.43
2018-02-03T00:13:18.311Z,6.60
2018-02-03T00:15:46.612Z,5.90
2018-02-03T00:18:14.979Z,9.40
2018-02-03T00:20:43.249Z,6.87
2018-02-03T00:23:11.607Z,5.20
2018-02-03T00:25:40.656Z,8.83
2018-02-03T00:28:08.963Z,6.03
2018-02-03T00:30:37.225Z,6.47
2018-02-03T00:33:05.485Z,5.57
2018-02-03T00:35:33.776Z,6.17
2018-02-03T00:38:02.057Z,5.77
2018-02-03T00:40:30.385Z,6.43
2018-02-03T00:42:58.675Z,6.73
2018-02-03T00:45:26.978Z,10.73
2018-02-03T00:47:55.242Z,6.87
2018-02-03T00:50:23.541Z,10.47
2018-02-03T00:52:51.858Z,7.03
2018-02-03T00:55:20.939Z,6.20
2018-02-03T00:57:49.256Z,12.20
2018-02-03T01:00:17.562Z,7.60
2018-02-03T01:02:45.873Z,8.83
2018-02-03T01:05:14.159Z,6.70
2018-02-03T01:07:42.512Z,6.97
2018-02-03T01:10:10.796Z,11.00
2018-02-03T01:12:39.091Z,7.80
2018-02-03T01:15:08.204Z,8.20
2018-02-03T01:17:37.261Z,9.60
2018-02-03T01:20:05.581Z,6.37
2018-02-03T01:22:33.872Z,9.90
2018-02-03T01:25:02.182Z,11.83
2018-02-03T01:27:30.500Z,9.00
2018-02-03T01:29:58.816Z,8.20
2018-02-03T01:32:27.120Z,7.03
2018-02-03T01:34:55.391Z,7.20
2018-02-03T01:37:23.693Z,7.07
2018-02-03T01:39:51.972Z,8.40
2018-02-03T01:42:20.315Z,6.37
2018-02-03T01:44:48.591Z,7.37
2018-02-03T01:47:16.884Z,7.13
2018-02-03T01:49:45.154Z,9.03
2018-02-03T01:52:13.431Z,5.93
2018-02-03T01:54:41.760Z,9.40
2018-02-03T01:57:10.813Z,6.20
2018-02-03T01:59:39.113Z,9.27
2018-02-03T02:02:07.383Z,9.13
2018-02-03T02:04:35.687Z,10.50
2018-02-03T02:07:04.752Z,7.07
2018-02-03T02:09:33.065Z,7.13
2018-02-03T02:12:02.124Z,9.10
2018-02-03T02:14:30.401Z,6.40
2018-02-03T02:16:58.715Z,7.50
2018-02-03T02:19:27.850Z,8.47
2018-02-03T02:21:56.116Z,7.47
2018-02-03T02:24:24.404Z,11.57
2018-02-03T02:26:52.713Z,8.47
2018-02-03T02:29:20.987Z,8.63
2018-02-03T02:31:49.331Z,9.13
2018-02-03T02:34:17.607Z,8.67
2018-02-03T02:36:45.893Z,8.60
2018-02-03T02:39:14.204Z,7.60
2018-02-03T02:41:42.480Z,8.90
2018-02-03T02:44:11.123Z,9.07
2018-02-03T02:46:39.425Z,11.87
2018-02-03T02:49:07.711Z,6.20
2018-02-03T02:51:36.011Z,8.10
2018-02-03T02:54:04.288Z,6.67
2018-02-03T02:56:32.601Z,8.73
2018-02-03T02:59:00.890Z,9.80
2018-02-03T03:01:29.979Z,6.60
2018-02-03T03:03:59.028Z,12.57
2018-02-03T03:06:27.330Z,8.37
2018-02-03T03:08:56.361Z,8.23
2018-02-03T03:11:24.662Z,8.70
2018-02-03T03:13:53.035Z,7.33
2018-02-03T03:16:21.318Z,8.10
2018-02-03T03:18:49.612Z,7.27
2018-02-03T03:21:17.897Z,9.67
2018-02-03T03:23:46.226Z,6.60
2018-02-03T03:26:14.518Z,14.57
2018-02-03T03:28:42.778Z,7.03
2018-02-03T03:31:11.100Z,10.33
2018-02-03T03:33:39.365Z,11.83
2018-02-03T03:36:08.089Z,8.57
2018-02-03T03:38:36.359Z,10.60
2018-02-03T03:41:04.640Z,10.07
2018-02-03T03:43:32.959Z,7.20
2018-02-03T03:46:01.247Z,9.17
2018-02-03T03:48:29.520Z,8.80
2018-02-03T03:50:57.775Z,8.87
2018-02-03T03:53:26.135Z,9.10
2018-02-03T03:55:54.561Z,9.90
2018-02-03T03:58:22.836Z,8.20
2018-02-03T04:00:51.143Z,10.67
2018-02-03T04:03:19.452Z,10.83
2018-02-03T04:05:47.781Z,9.17
2018-02-03T04:08:16.067Z,10.20
2018-02-03T04:10:44.387Z,12.60
2018-02-03T04:13:13.473Z,12.00
2018-02-03T04:15:41.748Z,8.80
2018-02-03T04:18:10.037Z,10.30
2018-02-03T04:20:38.300Z,9.37
2018-02-03T04:23:06.586Z,7.87
2018-02-03T04:25:34.868Z,8.43
2018-02-03T04:28:03.143Z,8.70
2018-02-03T04:30:31.512Z,8.37
2018-02-03T04:32:59.790Z,10.70
2018-02-03T04:35:28.154Z,11.93
2018-02-03T04:37:56.426Z,13.47
2018-02-03T04:40:24.711Z,11.07
2018-02-03T04:42:53.044Z,8.50
2018-02-03T04:45:21.345Z,10.40
2018-02-03T04:47:50.003Z,7.97
2018-02-03T04:50:18.283Z,10.90
2018-02-03T04:52:46.583Z,9.60
2018-02-03T04:55:14.870Z,11.23
2018-02-03T04:57:43.948Z,11.70
2018-02-03T05:00:12.274Z,9.30
2018-02-03T05:02:40.552Z,9.17
2018-02-03T05:05:08.875Z,10.30
2018-02-03T05:07:37.154Z,13.37
2018-02-03T05:10:05.432Z,12.23
2018-02-03T05:12:33.748Z,9.27
2018-02-03T05:15:02.028Z,9.17
2018-02-03T05:17:30.364Z,11.83
2018-02-03T05:19:59.415Z,11.50
2018-02-03T05:22:27.756Z,13.17
2018-02-03T05:24:56.027Z,7.30
2018-02-03T05:27:24.359Z,13.17
2018-02-03T05:29:52.712Z,12.63
2018-02-03T05:32:21.001Z,13.17
2018-02-03T05:34:49.312Z,7.53
2018-02-03T05:37:18.390Z,11.37
2018-02-03T05:39:46.679Z,14.87
2018-02-03T05:42:15.785Z,12.03
2018-02-03T05:44:47.295Z,13.13
2018-02-03T05:47:15.608Z,15.90
2018-02-03T05:49:43.901Z,14.37
2018-02-03T05:52:12.970Z,9.87
2018-02-03T05:54:41.277Z,14.97
2018-02-03T05:57:10.348Z,17.13
2018-02-03T05:59:38.637Z,13.83
2018-02-03T06:02:07.693Z,13.57
2018-02-03T06:04:35.999Z,13.00
2018-02-03T06:07:05.015Z,16.60
2018-02-03T06:09:33.333Z,11.20
2018-02-03T06:12:01.609Z,11.97
2018-02-03T06:14:29.920Z,14.17
2018-02-03T06:16:58.209Z,15.50
2018-02-03T06:19:26.532Z,15.73
2018-02-03T06:21:55.582Z,14.53
2018-02-03T06:24:23.880Z,14.40
2018-02-03T06:26:52.951Z,11.80
2018-02-03T06:29:21.242Z,16.40
2018-02-03T06:31:49.523Z,14.40
2018-02-03T06:34:18.635Z,14.07
2018-02-03T06:36:47.699Z,17.27
2018-02-03T06:39:16.018Z,13.43
2018-02-03T06:41:44.310Z,12.23
2018-02-03T06:44:12.688Z,14.70
2018-02-03T06:46:41.023Z,11.97
2018-02-03T06:49:09.319Z,17.17
2018-02-03T06:51:38.429Z,13.00
2018-02-03T06:54:06.721Z,11.77
2018-02-03T06:56:35.019Z,13.33
2018-02-03T06:59:03.300Z,16.30
2018-02-03T07:01:31.635Z,14.70
2018-02-03T07:03:59.952Z,12.10
2018-02-03T07:06:28.303Z,12.80
2018-02-03T07:08:56.621Z,19.73
2018-02-03T07:11:24.907Z,14.07
2018-02-03T07:13:53.245Z,14.07
2018-02-03T07:16:21.514Z,18.10
2018-02-03T07:18:49.886Z,17.43
2018-02-03T07:21:18.997Z,11.70
2018-02-03T07:23:47.296Z,11.23
2018-02-03T07:26:15.623Z,13.67
2018-02-03T07:28:44.694Z,13.03
2018-02-03T07:31:13.010Z,16.53
2018-02-03T07:33:42.081Z,12.43
2018-02-03T07:36:10.412Z,13.93
2018-02-03T07:38:38.776Z,13.63
2018-02-03T07:41:07.838Z,14.27
2018-02-03T07:43:36.169Z,14.83
2018-02-03T07:46:04.458Z,15.53
2018-02-03T07:48:32.783Z,11.50
2018-02-03T07:51:01.863Z,11.37
2018-02-03T07:53:30.734Z,15.00
2018-02-03T07:55:59.039Z,13.57
2018-02-03T07:58:27.378Z,0.90
2018-02-03T08:00:55.694Z,2.50
2018-02-03T08:03:24.020Z,1.50
2018-02-03T08:05:52.337Z,0.70
2018-02-03T08:08:20.626Z,0.70
2018-02-03T08:10:48.940Z,3.47
2018-02-03T08:13:17.224Z,5.13
2018-02-03T08:15:45.561Z,1.40
2018-02-03T08:18:13.840Z,0.70
2018-02-03T08:20:42.139Z,1.93
2018-02-03T08:23:10.460Z,2.97
2018-02-03T08:25:39.538Z,1.67
2018-02-03T08:55:31.229Z,4.30
2018-02-03T08:57:59.549Z,5.60
2018-02-03T09:00:27.938Z,1.63
2018-02-03T09:06:06.464Z,1.10
2018-02-03T09:08:57.220Z,9.17
2018-02-03T09:11:25.581Z,10.77
2018-02-03T09:13:53.914Z,10.40
2018-02-03T09:16:22.308Z,12.10
2018-02-03T09:18:50.595Z,12.70
2018-02-03T09:21:18.938Z,10.67
2018-02-03T09:23:48.074Z,12.20
2018-02-03T09:26:16.825Z,13.00
2018-02-03T09:28:45.876Z,9.83
2018-02-03T09:31:14.179Z,11.90
2018-02-03T09:33:42.517Z,12.47
2018-02-03T09:36:10.801Z,13.27
2018-02-03T09:38:49.545Z,13.90
2018-02-03T09:41:17.826Z,6.80
2018-02-03T09:43:46.213Z,10.63
2018-02-03T09:46:14.549Z,12.27
2018-02-03T09:48:42.858Z,11.63
2018-02-03T09:51:11.229Z,13.40
2018-02-03T09:53:39.566Z,12.50
2018-02-03T09:56:07.972Z,10.43
2018-02-03T09:58:36.598Z,9.60
2018-02-03T10:01:04.963Z,14.03
2018-02-03T10:03:33.330Z,15.20
2018-02-03T10:06:01.643Z,10.27
2018-02-03T10:08:30.766Z,11.80
2018-02-03T10:10:59.830Z,11.73
2018-02-03T10:13:28.538Z,10.17
2018-02-03T10:15:57.735Z,10.30
2018-02-03T10:18:27.000Z,12.10
2018-02-03T10:20:55.396Z,12.93
2018-02-03T10:23:23.784Z,11.43
2018-02-03T10:25:53.047Z,11.87
2018-02-03T10:28:21.403Z,6.90
2018-02-03T10:30:50.618Z,10.70
2018-02-03T10:33:19.071Z,10.17
2018-02-03T10:35:51.506Z,10.03
2018-02-03T10:38:19.859Z,7.13
2018-02-03T10:40:48.378Z,7.77
2018-02-03T10:43:17.498Z,8.70
2018-02-03T10:45:45.808Z,9.23
2018-02-03T10:48:15.113Z,7.90
2018-02-03T10:50:43.420Z,8.00
2018-02-03T10:53:11.727Z,7.80
2018-02-03T10:55:40.030Z,8.17
2018-02-03T10:58:09.149Z,11.63
2018-02-03T11:00:44.039Z,8.50
2018-02-03T11:03:12.389Z,7.97
2018-02-03T11:05:40.659Z,8.70
2018-02-03T11:08:09.043Z,7.40
2018-02-03T11:10:37.340Z,6.90
2018-02-03T11:13:05.645Z,9.73
2018-02-03T11:15:34.735Z,6.23
2018-02-03T11:18:04.771Z,8.00
2018-02-03T11:20:33.092Z,9.50
2018-02-03T11:23:01.376Z,8.40
2018-02-03T11:25:29.673Z,9.07
2018-02-03T11:27:58.045Z,9.23
2018-02-03T11:30:26.343Z,9.23
2018-02-03T11:32:55.443Z,11.30
2018-02-03T11:35:24.487Z,10.43
2018-02-03T11:37:52.852Z,9.87
2018-02-03T11:40:21.146Z,9.97
2018-02-03T11:42:49.511Z,11.23
2018-02-03T11:45:17.858Z,12.73
2018-02-03T11:47:46.895Z,11.27
2018-02-03T11:50:15.491Z,9.30
2018-02-03T11:52:43.784Z,12.63
2018-02-03T11:55:14.335Z,8.57
2018-02-03T11:57:42.592Z,9.73
2018-02-03T12:00:10.934Z,13.30
2018-02-03T12:02:39.986Z,11.37
2018-02-03T12:05:08.297Z,8.97
2018-02-03T12:07:36.631Z,18.97
2018-02-03T12:10:04.980Z,7.93
2018-02-03T12:12:33.308Z,9.13
2018-02-03T12:15:02.410Z,9.90
2018-02-03T12:17:32.503Z,9.60
2018-02-03T12:20:00.891Z,13.70
2018-02-03T12:22:29.247Z,13.23
2018-02-03T12:24:57.547Z,10.03
2018-02-03T12:27:25.851Z,10.47
2018-02-03T12:29:54.926Z,11.13
2018-02-03T12:32:23.330Z,10.73
2018-02-03T12:34:52.471Z,14.07
2018-02-03T12:37:25.333Z,11.53
2018-02-03T12:39:54.213Z,13.87
2018-02-03T12:42:22.497Z,9.17
2018-02-03T12:44:50.913Z,12.10
2018-02-03T12:47:19.289Z,9.23
2018-02-03T12:49:47.622Z,16.43
2018-02-03T12:52:15.964Z,8.50
2018-02-03T12:54:44.300Z,12.33
2018-02-03T12:57:12.610Z,12.07
2018-02-03T12:59:41.091Z,13.63
2018-02-03T13:02:09.384Z,10.13
2018-02-03T13:04:37.717Z,10.00
2018-02-03T13:07:06.031Z,11.10
2018-02-03T13:09:34.401Z,7.67
2018-02-03T13:12:02.723Z,12.90
2018-02-03T13:14:31.081Z,15.60
2018-02-03T13:16:59.392Z,15.00
2018-02-03T13:19:27.719Z,11.50
2018-02-03T13:21:56.045Z,12.10
2018-02-03T13:24:24.328Z,14.77
2018-02-03T13:26:53.447Z,11.10
2018-02-03T13:29:21.780Z,14.07
2018-02-03T13:31:50.218Z,15.97
2018-02-03T13:34:18.786Z,14.77
2018-02-03T13:36:47.178Z,12.00
2018-02-03T13:39:15.634Z,11.63
2018-02-03T13:41:44.667Z,11.63
2018-02-03T13:44:13.008Z,14.50
2018-02-03T13:46:41.331Z,17.00
2018-02-03T13:49:09.706Z,9.67
2018-02-03T13:51:38.041Z,15.90
2018-02-03T13:54:07.132Z,14.53
2018-02-03T13:56:36.220Z,10.97
2018-02-03T13:59:04.703Z,16.30
2018-02-03T14:01:33.018Z,11.73
2018-02-03T14:04:01.369Z,17.27
2018-02-03T14:06:30.800Z,14.20
2018-02-03T14:08:59.177Z,13.13
2018-02-03T14:11:28.439Z,15.80
2018-02-03T14:13:56.736Z,12.97
2018-02-03T14:16:25.899Z,15.07
2018-02-03T14:18:54.244Z,17.80
2018-02-03T14:21:22.601Z,10.13
2018-02-03T14:23:56.677Z,13.00
2018-02-03T14:26:25.085Z,15.20
2018-02-03T14:28:54.233Z,13.80
2018-02-03T14:31:22.552Z,14.80
2018-02-03T14:33:51.732Z,10.50
2018-02-03T14:36:20.049Z,13.50
2018-02-03T14:38:48.430Z,11.80
2018-02-03T14:41:17.510Z,16.70
2018-02-03T14:43:46.729Z,13.87
2018-02-03T14:46:15.805Z,14.07
2018-02-03T14:48:44.882Z,13.97
2018-02-03T15:10:06.292Z,17.60
2018-02-03T15:12:37.310Z,20.73
2018-02-03T15:15:08.553Z,12.40
2018-02-03T15:17:38.838Z,14.30
2018-02-03T15:20:07.288Z,11.30
2018-02-03T15:22:39.814Z,16.90
2018-02-03T15:25:08.265Z,13.43
2018-02-03T15:27:37.677Z,17.63
2018-02-03T15:30:06.154Z,15.00
2018-02-03T15:32:34.497Z,11.13
2018-02-03T15:35:03.691Z,15.83
2018-02-03T15:37:32.798Z,17.03
2018-02-03T15:40:04.687Z,12.67
2018-02-03T15:42:43.600Z,16.63
2018-02-03T15:45:21.577Z,11.10
2018-02-03T15:47:51.549Z,9.27
2018-02-03T15:50:24.249Z,11.03
2018-02-03T15:52:52.624Z,11.63
2018-02-03T15:55:20.929Z,10.67
2018-02-03T15:57:49.253Z,15.23
2018-02-03T16:00:17.560Z,12.60
2018-02-03T16:02:45.880Z,12.20
2018-02-03T16:05:14.165Z,16.53
2018-02-03T16:07:42.554Z,12.70
2018-02-03T16:10:10.939Z,13.77
2018-02-03T16:12:39.267Z,10.23
2018-02-03T16:15:07.598Z,9.07
2018-02-03T16:17:35.881Z,9.53
2018-02-03T16:20:04.202Z,8.37
2018-02-03T16:22:32.483Z,12.80
2018-02-03T16:25:01.540Z,9.23
2018-02-03T16:27:29.942Z,9.83
2018-02-03T16:29:58.223Z,9.97
2018-02-03T16:32:26.572Z,9.83
2018-02-03T16:34:55.957Z,13.93
2018-02-03T16:37:24.276Z,8.93
2018-02-03T16:39:52.578Z,11.20
2018-02-03T16:42:21.659Z,10.40
2018-02-03T16:44:49.952Z,12.20
2018-02-03T16:47:19.008Z,7.70
2018-02-03T16:49:47.442Z,13.53
2018-02-03T16:52:15.724Z,10.50
2018-02-03T16:54:44.066Z,11.63
2018-02-03T16:57:12.447Z,13.33
2018-02-03T16:59:40.792Z,10.23
2018-02-03T17:02:09.212Z,13.37
2018-02-03T17:04:38.347Z,10.97
2018-02-03T17:07:06.691Z,14.30
2018-02-03T17:09:35.840Z,16.07
2018-02-03T17:12:04.193Z,0.80
2018-02-03T17:14:32.554Z,1.60
2018-02-03T17:17:00.874Z,1.53
2018-02-03T17:19:29.177Z,0.80
2018-02-03T17:21:57.536Z,0.73
2018-02-03T17:24:25.849Z,0.70
2018-02-03T17:26:54.265Z,0.80
2018-02-03T17:29:22.709Z,0.80
2018-02-03T17:31:51.048Z,4.10
2018-02-03T17:34:19.541Z,0.70
2018-02-03T17:36:53.822Z,2.97
2018-02-03T17:39:22.190Z,0.70
2018-02-03T17:41:50.582Z,0.63
2018-02-03T17:44:19.725Z,1.73
2018-02-03T17:46:53.835Z,0.80
2018-02-03T17:49:23.063Z,10.95
2018-02-03T17:51:51.620Z,15.93
2018-02-03T17:54:20.753Z,10.63
2018-02-03T17:56:54.764Z,17.33
2018-02-03T17:59:23.101Z,14.93
2018-02-03T18:01:51.506Z,12.60
2018-02-03T18:04:21.755Z,16.98
2018-02-03T18:06:56.710Z,13.60
2018-02-03T18:09:25.778Z,11.20
2018-02-03T18:11:54.101Z,12.83
2018-02-03T18:14:22.399Z,13.40
2018-02-03T18:16:50.723Z,10.73
2018-02-03T18:19:19.030Z,10.80
2018-02-03T18:21:48.089Z,11.97
2018-02-03T18:24:16.424Z,12.47
2018-02-03T18:26:44.745Z,20.03
2018-02-03T18:29:13.134Z,8.35
2018-02-03T18:31:41.727Z,12.10
2018-02-03T18:34:10.325Z,15.93
2018-02-03T18:36:38.843Z,10.07
2018-02-03T18:39:07.308Z,11.27
2018-02-03T18:41:35.694Z,9.77
2018-02-03T18:44:04.045Z,9.73
2018-02-03T18:46:33.229Z,10.90
2018-02-03T18:49:01.559Z,15.25
2018-02-03T18:51:30.783Z,7.03
2018-02-03T18:53:59.078Z,10.13
2018-02-03T18:56:27.485Z,7.20
2018-02-03T18:58:59.649Z,18.70
2018-02-03T19:01:27.965Z,8.33
2018-02-03T19:03:56.339Z,10.35
2018-02-03T19:06:24.639Z,11.90
2018-02-03T19:08:53.074Z,9.63
2018-02-03T19:11:22.177Z,12.17
2018-02-03T19:13:50.502Z,8.00
2018-02-03T19:16:18.817Z,8.90
2018-02-03T19:18:48.029Z,8.50
2018-02-03T19:21:17.120Z,10.33
2018-02-03T19:23:46.219Z,15.80
2018-02-03T19:26:15.330Z,13.13
2018-02-03T19:28:43.668Z,9.75
2018-02-03T19:31:12.012Z,11.63
2018-02-03T19:33:40.311Z,11.32
2018-02-03T19:36:08.607Z,14.30
2018-02-03T19:38:36.884Z,8.90
2018-02-03T19:41:05.289Z,12.13
2018-02-03T19:43:34.383Z,13.07
2018-02-03T19:46:03.430Z,16.60
2018-02-03T19:48:31.890Z,16.70
2018-02-03T19:51:00.213Z,17.80
2018-02-03T19:53:28.543Z,17.00
2018-02-03T19:55:56.862Z,14.33
2018-02-03T19:58:25.196Z,19.70
2018-02-03T20:00:53.631Z,16.67
2018-02-03T20:03:21.946Z,13.83
2018-02-03T20:05:50.293Z,16.43
2018-02-03T20:08:18.620Z,12.23
2018-02-03T20:10:47.189Z,16.20
2018-02-03T20:13:15.513Z,14.27
2018-02-03T20:15:43.809Z,17.60
2018-02-03T20:18:12.181Z,14.40
2018-02-03T20:20:41.261Z,19.67
2018-02-03T20:23:09.588Z,0.70
2018-02-03T20:25:38.654Z,4.20
2018-02-03T20:28:06.983Z,0.73
2018-02-03T20:30:35.271Z,4.30
2018-02-03T20:33:03.598Z,1.95
2018-02-03T20:35:31.933Z,0.90
2018-02-03T20:38:00.245Z,0.70
2018-02-03T20:40:28.599Z,0.80
2018-02-03T20:42:56.928Z,0.70
2018-02-03T20:45:25.284Z,1.05
2018-02-03T20:47:53.617Z,0.70
2018-02-03T20:50:21.910Z,0.70
2018-02-03T20:52:50.255Z,0.80
2018-02-03T20:55:19.310Z,0.70
2018-02-03T20:57:47.677Z,0.75
2018-02-03T21:00:17.402Z,1.90
2018-02-03T21:02:46.586Z,4.03
2018-02-03T21:05:14.925Z,0.70
2018-02-03T21:07:43.264Z,0.70
2018-02-03T21:10:11.531Z,0.70
2018-02-03T21:12:40.268Z,0.70
2018-02-03T21:15:09.331Z,0.80
2018-02-03T21:17:37.650Z,0.62
2018-02-03T21:20:05.961Z,0.70
2018-02-03T21:22:34.277Z,0.68
2018-02-03T21:25:02.615Z,1.40
2018-02-03T21:27:30.921Z,0.88
2018-02-03T21:29:59.284Z,0.70
2018-02-03T21:32:27.563Z,0.62
2018-02-03T21:34:55.869Z,4.03
2018-02-03T21:37:24.963Z,0.60
2018-02-03T21:39:53.263Z,0.80
2018-02-03T21:42:22.420Z,0.80
2018-02-03T21:44:50.722Z,0.82
2018-02-03T21:47:19.038Z,0.90
2018-02-03T21:49:47.386Z,0.80
2018-02-03T21:52:16.424Z,0.70
2018-02-03T21:54:44.794Z,0.77
2018-02-03T21:57:13.090Z,1.30
2018-02-03T21:59:41.425Z,0.70
2018-02-03T22:02:10.498Z,0.70
2018-02-03T22:04:38.804Z,0.80
2018-02-03T22:07:07.900Z,4.33
2018-02-03T22:09:37.876Z,0.70
2018-02-03T22:12:06.212Z,0.93
2018-02-03T22:14:34.533Z,0.73
2018-02-03T22:17:02.868Z,1.33
2018-02-03T22:19:31.179Z,0.70
2018-02-03T22:21:59.512Z,0.70
2018-02-03T22:24:28.568Z,0.90
2018-02-03T22:26:56.830Z,0.80
2018-02-03T22:29:25.179Z,0.82
2018-02-03T22:31:53.476Z,0.80
2018-02-03T22:34:22.143Z,0.80
2018-02-03T22:36:50.460Z,0.73
2018-02-03T22:39:18.769Z,3.90
2018-02-03T22:41:47.102Z,0.70
2018-02-03T22:44:15.377Z,0.70
2018-02-03T22:46:43.695Z,0.80
2018-02-03T22:49:11.978Z,0.80
2018-02-03T22:51:40.278Z,0.70
2018-02-03T22:54:08.574Z,0.73
2018-02-03T22:56:36.882Z,0.70
2018-02-03T22:59:05.170Z,0.80
2018-02-03T23:01:33.485Z,0.70
2018-02-03T23:04:02.603Z,0.70
2018-02-03T23:06:31.658Z,0.70
2018-02-03T23:08:59.971Z,0.70
2018-02-03T23:11:29.029Z,4.23
2018-02-03T23:13:58.183Z,0.70
2018-02-03T23:16:26.481Z,0.60
2018-02-03T23:18:54.806Z,0.70
2018-02-03T23:21:23.154Z,0.60
2018-02-03T23:23:51.460Z,0.70
2018-02-03T23:26:19.800Z,0.70
2018-02-03T23:28:48.087Z,0.80
2018-02-03T23:31:16.381Z,0.80
2018-02-03T23:33:44.769Z,0.80
2018-02-03T23:36:13.110Z,1.10
2018-02-03T23:38:41.423Z,0.70
2018-02-03T23:41:09.746Z,0.73
2018-02-03T23:43:38.085Z,4.05
2018-02-03T23:46:07.114Z,0.90
2018-02-03T23:48:35.369Z,9.07
2018-02-03T23:51:04.434Z,18.47
2018-02-03T23:53:32.712Z,9.77
2018-02-03T23:56:01.079Z,18.03
2018-02-03T23:58:29.353Z,15.40
